Detroit, MI (48201)

4:54 PM EDT on March 27, 2015 (GMT -0400)
La Salle Gardens | | Change Station
CLOSE
Current Station
Personal Weather Station
Location: Detroit, MI
Elevation: 632 ft
Nearby Weather Stations

Elev 632 ft 42.36 °N, 83.10 °W | Updated 45 seconds ago

Snow
Snow
27.3 °F
Feels Like 27 °F
N
0.0
Wind Variable Wind from SSW
Gusts 0.0 mph

Today
High -- | Low -- °F
--% Chance of Precip.
Yesterday
High -- | Low -- °F
Precip. -- in
7:23 AM 7:52 PM
First Quarter, 55% visible
Pressure 30.06 in
Visibility 7.0 miles
Clouds Mostly Cloudy 3200 ft
Overcast 4400 ft
Windchill 27 °F
Dew Point 2 °F
Humidity 33%
Rainfall 0.00 in
Snow Depth Not available.
UV 1.0 out of 12
Pollen 3.60 out of 12
Air Quality Not available.
Flu Activity Not available.
METAR KDET 271953Z 36014G19KT 7SM -SN BKN032 OVC044 M03/M11 A3003 RMK AO2 SLP177 P0000 T10281106

More Conditions Fewer Conditions

Pressure 30.06 in
Visibility 7.0 miles
Clouds Mostly Cloudy 3200 ft
Overcast 4400 ft
Windchill 27 °F
Dew Point 2 °F
Humidity 33%
Rainfall 0.00 in
Snow Depth Not available.
UV 1.0 out of 12
Pollen 3.60 out of 12
Air Quality Not available.
Flu Activity Not available.
METAR KDET 271953Z 36014G19KT 7SM -SN BKN032 OVC044 M03/M11 A3003 RMK AO2 SLP177 P0000 T10281106

More Conditions Fewer Conditions

10-Day Weather Forecast

Almanac

Astronomy

Mar. 27, 2015 Rise Set
Actual Time
Civil Twilight
Nautical Twilight
Astronomical Twilight
Moon
Length of Visible Light
Length of Day
Tomorrow will be .
, % of the Moon is Illuminated

Today's Extremes

State Highs State Lows

Community

WunderPhotos

Upload Photos

1,808,822 photos uploaded!

WunderBlogs® & News

Nearby

Air Quality

  Air Quality AQ Index Pollutant
Not available.

Snow Depth

Station Depth Elevation

Earthquake Activity

City Distance Mag. Time & Date
Minimum magnitude displayed is 2.5.

Coastal Water Temperatures

Place Temperature

Stations

Nearby Weather Stations

Station Location Temp. Windchill Dew Point Humidity Wind Precip. Elev Updated Type